sensor_id;sensor_type;location;lat;lon;timestamp;P1;durP1;ratioP1;P2;durP2;ratioP2
14789;SDS011;7486;51.010;10.366;2024-03-02T00:01:52;20.97;;;16.67;;
14789;SDS011;7486;51.010;10.366;2024-03-02T00:04:38;21.70;;;16.73;;
14789;SDS011;7486;51.010;10.366;2024-03-02T00:07:24;19.43;;;15.90;;
14789;SDS011;7486;51.010;10.366;2024-03-02T00:10:10;20.57;;;16.13;;
14789;SDS011;7486;51.010;10.366;2024-03-02T00:12:56;16.93;;;14.57;;
14789;SDS011;7486;51.010;10.366;2024-03-02T00:15:46;19.70;;;15.33;;
14789;SDS011;7486;51.010;10.366;2024-03-02T00:18:33;20.03;;;15.17;;
14789;SDS011;7486;51.010;10.366;2024-03-02T00:21:20;19.77;;;14.87;;
14789;SDS011;7486;51.010;10.366;2024-03-02T00:24:08;19.53;;;14.53;;
14789;SDS011;7486;51.010;10.366;2024-03-02T00:27:05;18.17;;;14.50;;
14789;SDS011;7486;51.010;10.366;2024-03-02T00:29:52;17.83;;;14.00;;
14789;SDS011;7486;51.010;10.366;2024-03-02T00:32:38;17.67;;;14.07;;
14789;SDS011;7486;51.010;10.366;2024-03-02T00:35:23;19.57;;;14.80;;
14789;SDS011;7486;51.010;10.366;2024-03-02T00:38:09;19.10;;;14.77;;
14789;SDS011;7486;51.010;10.366;2024-03-02T00:40:55;18.27;;;14.47;;
14789;SDS011;7486;51.010;10.366;2024-03-02T00:44:05;17.70;;;14.23;;
14789;SDS011;7486;51.010;10.366;2024-03-02T00:46:50;19.47;;;15.50;;
14789;SDS011;7486;51.010;10.366;2024-03-02T00:49:35;18.60;;;14.83;;
14789;SDS011;7486;51.010;10.366;2024-03-02T00:52:25;19.83;;;15.23;;
14789;SDS011;7486;51.010;10.366;2024-03-02T00:55:10;18.63;;;15.33;;
14789;SDS011;7486;51.010;10.366;2024-03-02T00:57:57;17.40;;;14.73;;
14789;SDS011;7486;51.010;10.366;2024-03-02T01:00:43;20.93;;;16.17;;
14789;SDS011;7486;51.010;10.366;2024-03-02T01:03:28;17.97;;;15.10;;
14789;SDS011;7486;51.010;10.366;2024-03-02T01:06:15;20.67;;;15.30;;
14789;SDS011;7486;51.010;10.366;2024-03-02T01:09:01;19.33;;;15.57;;
14789;SDS011;7486;51.010;10.366;2024-03-02T01:11:47;17.73;;;15.07;;
14789;SDS011;7486;51.010;10.366;2024-03-02T01:14:32;19.73;;;15.33;;
14789;SDS011;7486;51.010;10.366;2024-03-02T01:17:18;18.27;;;14.80;;
14789;SDS011;7486;51.010;10.366;2024-03-02T01:20:04;17.90;;;14.60;;
14789;SDS011;7486;51.010;10.366;2024-03-02T01:22:52;19.67;;;15.60;;
14789;SDS011;7486;51.010;10.366;2024-03-02T01:25:38;22.43;;;16.83;;
14789;SDS011;7486;51.010;10.366;2024-03-02T01:28:23;22.40;;;16.57;;
14789;SDS011;7486;51.010;10.366;2024-03-02T01:31:08;21.43;;;15.83;;
14789;SDS011;7486;51.010;10.366;2024-03-02T01:33:54;20.33;;;16.40;;
14789;SDS011;7486;51.010;10.366;2024-03-02T01:36:40;22.73;;;16.70;;
14789;SDS011;7486;51.010;10.366;2024-03-02T01:39:26;20.73;;;15.87;;
14789;SDS011;7486;51.010;10.366;2024-03-02T01:42:11;22.53;;;17.20;;
14789;SDS011;7486;51.010;10.366;2024-03-02T01:44:57;22.63;;;17.60;;
14789;SDS011;7486;51.010;10.366;2024-03-02T01:47:43;21.67;;;17.20;;
14789;SDS011;7486;51.010;10.366;2024-03-02T01:50:31;20.13;;;16.00;;
14789;SDS011;7486;51.010;10.366;2024-03-02T01:53:18;21.33;;;16.33;;
14789;SDS011;7486;51.010;10.366;2024-03-02T01:56:04;20.57;;;16.60;;
14789;SDS011;7486;51.010;10.366;2024-03-02T01:58:49;20.67;;;15.70;;
14789;SDS011;7486;51.010;10.366;2024-03-02T02:01:35;20.30;;;16.17;;
14789;SDS011;7486;51.010;10.366;2024-03-02T02:04:20;23.00;;;16.77;;
14789;SDS011;7486;51.010;10.366;2024-03-02T02:07:05;19.43;;;15.27;;
14789;SDS011;7486;51.010;10.366;2024-03-02T02:09:51;19.30;;;15.60;;
14789;SDS011;7486;51.010;10.366;2024-03-02T02:12:36;21.00;;;16.17;;
14789;SDS011;7486;51.010;10.366;2024-03-02T02:18:12;19.93;;;15.77;;
14789;SDS011;7486;51.010;10.366;2024-03-02T02:20:57;21.87;;;16.23;;
14789;SDS011;7486;51.010;10.366;2024-03-02T02:23:43;20.87;;;17.10;;
14789;SDS011;7486;51.010;10.366;2024-03-02T02:26:29;22.67;;;16.27;;
14789;SDS011;7486;51.010;10.366;2024-03-02T02:29:14;19.23;;;15.67;;
14789;SDS011;7486;51.010;10.366;2024-03-02T02:32:00;19.03;;;15.20;;
14789;SDS011;7486;51.010;10.366;2024-03-02T02:34:47;19.03;;;14.60;;
14789;SDS011;7486;51.010;10.366;2024-03-02T02:37:37;19.97;;;15.60;;
14789;SDS011;7486;51.010;10.366;2024-03-02T02:40:22;20.50;;;16.13;;
14789;SDS011;7486;51.010;10.366;2024-03-02T02:43:08;21.67;;;16.53;;
14789;SDS011;7486;51.010;10.366;2024-03-02T02:45:54;21.30;;;15.73;;
14789;SDS011;7486;51.010;10.366;2024-03-02T02:48:40;23.07;;;17.00;;
14789;SDS011;7486;51.010;10.366;2024-03-02T02:51:25;21.50;;;16.27;;
14789;SDS011;7486;51.010;10.366;2024-03-02T02:54:11;24.17;;;17.23;;
14789;SDS011;7486;51.010;10.366;2024-03-02T02:56:57;23.53;;;16.90;;
14789;SDS011;7486;51.010;10.366;2024-03-02T02:59:42;20.40;;;16.33;;
14789;SDS011;7486;51.010;10.366;2024-03-02T03:02:28;23.63;;;17.47;;
14789;SDS011;7486;51.010;10.366;2024-03-02T03:05:13;25.20;;;17.37;;
14789;SDS011;7486;51.010;10.366;2024-03-02T03:08:00;24.53;;;17.57;;
14789;SDS011;7486;51.010;10.366;2024-03-02T03:10:45;25.57;;;17.17;;
14789;SDS011;7486;51.010;10.366;2024-03-02T03:13:34;22.43;;;16.67;;
14789;SDS011;7486;51.010;10.366;2024-03-02T03:16:20;22.10;;;16.77;;
14789;SDS011;7486;51.010;10.366;2024-03-02T03:19:05;22.03;;;16.63;;
14789;SDS011;7486;51.010;10.366;2024-03-02T03:21:52;24.37;;;17.53;;
14789;SDS011;7486;51.010;10.366;2024-03-02T03:24:38;22.70;;;16.93;;
14789;SDS011;7486;51.010;10.366;2024-03-02T03:27:23;25.17;;;18.87;;
14789;SDS011;7486;51.010;10.366;2024-03-02T03:30:09;25.20;;;17.63;;
14789;SDS011;7486;51.010;10.366;2024-03-02T03:32:55;25.23;;;18.13;;
14789;SDS011;7486;51.010;10.366;2024-03-02T03:35:40;26.17;;;18.80;;
14789;SDS011;7486;51.010;10.366;2024-03-02T03:38:25;24.33;;;17.30;;
14789;SDS011;7486;51.010;10.366;2024-03-02T03:41:11;24.77;;;18.27;;
14789;SDS011;7486;51.010;10.366;2024-03-02T03:43:56;23.97;;;17.10;;
14789;SDS011;7486;51.010;10.366;2024-03-02T03:46:42;26.50;;;18.50;;
14789;SDS011;7486;51.010;10.366;2024-03-02T03:49:27;24.73;;;17.77;;
14789;SDS011;7486;51.010;10.366;2024-03-02T03:52:12;24.23;;;17.43;;
14789;SDS011;7486;51.010;10.366;2024-03-02T03:54:57;24.20;;;17.23;;
14789;SDS011;7486;51.010;10.366;2024-03-02T03:57:43;26.10;;;17.43;;
14789;SDS011;7486;51.010;10.366;2024-03-02T04:00:29;23.83;;;17.27;;
14789;SDS011;7486;51.010;10.366;2024-03-02T04:03:14;24.23;;;16.93;;
14789;SDS011;7486;51.010;10.366;2024-03-02T04:06:00;22.93;;;16.87;;
14789;SDS011;7486;51.010;10.366;2024-03-02T04:08:46;24.03;;;16.80;;
14789;SDS011;7486;51.010;10.366;2024-03-02T04:11:31;23.67;;;17.87;;
14789;SDS011;7486;51.010;10.366;2024-03-02T04:14:17;24.10;;;17.40;;
14789;SDS011;7486;51.010;10.366;2024-03-02T04:17:02;25.40;;;18.00;;
14789;SDS011;7486;51.010;10.366;2024-03-02T04:19:48;26.03;;;17.60;;
14789;SDS011;7486;51.010;10.366;2024-03-02T04:22:33;25.23;;;17.40;;
14789;SDS011;7486;51.010;10.366;2024-03-02T04:25:19;23.93;;;17.07;;
14789;SDS011;7486;51.010;10.366;2024-03-02T04:28:05;25.17;;;16.80;;
14789;SDS011;7486;51.010;10.366;2024-03-02T04:30:50;22.20;;;16.10;;
14789;SDS011;7486;51.010;10.366;2024-03-02T04:33:36;22.07;;;16.37;;
14789;SDS011;7486;51.010;10.366;2024-03-02T04:36:21;25.47;;;17.97;;
14789;SDS011;7486;51.010;10.366;2024-03-02T04:39:06;24.07;;;17.97;;
14789;SDS011;7486;51.010;10.366;2024-03-02T04:41:52;27.13;;;18.47;;
14789;SDS011;7486;51.010;10.366;2024-03-02T04:44:37;29.40;;;18.70;;
14789;SDS011;7486;51.010;10.366;2024-03-02T04:47:23;25.67;;;18.17;;
14789;SDS011;7486;51.010;10.366;2024-03-02T04:50:08;28.07;;;18.07;;
14789;SDS011;7486;51.010;10.366;2024-03-02T04:52:54;25.87;;;17.33;;
14789;SDS011;7486;51.010;10.366;2024-03-02T04:55:39;20.80;;;15.47;;
14789;SDS011;7486;51.010;10.366;2024-03-02T04:58:25;25.13;;;17.93;;
14789;SDS011;7486;51.010;10.366;2024-03-02T05:01:10;23.30;;;16.30;;
14789;SDS011;7486;51.010;10.366;2024-03-02T05:03:56;26.07;;;18.97;;
14789;SDS011;7486;51.010;10.366;2024-03-02T05:06:41;25.27;;;18.30;;
14789;SDS011;7486;51.010;10.366;2024-03-02T05:09:27;23.17;;;16.67;;
14789;SDS011;7486;51.010;10.366;2024-03-02T05:12:13;27.07;;;19.23;;
14789;SDS011;7486;51.010;10.366;2024-03-02T05:14:58;29.77;;;19.73;;
14789;SDS011;7486;51.010;10.366;2024-03-02T05:17:44;28.43;;;19.83;;
14789;SDS011;7486;51.010;10.366;2024-03-02T05:20:30;28.93;;;19.63;;
14789;SDS011;7486;51.010;10.366;2024-03-02T05:23:16;28.50;;;19.93;;
14789;SDS011;7486;51.010;10.366;2024-03-02T05:26:01;28.07;;;19.90;;
14789;SDS011;7486;51.010;10.366;2024-03-02T05:28:47;29.33;;;20.13;;
14789;SDS011;7486;51.010;10.366;2024-03-02T05:31:33;29.30;;;20.07;;
14789;SDS011;7486;51.010;10.366;2024-03-02T05:34:18;25.90;;;19.13;;
14789;SDS011;7486;51.010;10.366;2024-03-02T05:37:04;29.13;;;18.77;;
14789;SDS011;7486;51.010;10.366;2024-03-02T05:39:49;26.07;;;19.27;;
14789;SDS011;7486;51.010;10.366;2024-03-02T05:42:35;27.27;;;19.17;;
14789;SDS011;7486;51.010;10.366;2024-03-02T05:45:21;25.77;;;19.50;;
14789;SDS011;7486;51.010;10.366;2024-03-02T05:48:07;26.97;;;19.03;;
14789;SDS011;7486;51.010;10.366;2024-03-02T05:50:53;28.17;;;19.67;;
14789;SDS011;7486;51.010;10.366;2024-03-02T05:53:38;27.37;;;18.73;;
14789;SDS011;7486;51.010;10.366;2024-03-02T05:56:23;26.57;;;18.93;;
14789;SDS011;7486;51.010;10.366;2024-03-02T05:59:09;25.73;;;18.53;;
14789;SDS011;7486;51.010;10.366;2024-03-02T06:01:54;27.47;;;18.33;;
14789;SDS011;7486;51.010;10.366;2024-03-02T06:04:40;23.87;;;17.93;;
14789;SDS011;7486;51.010;10.366;2024-03-02T06:07:28;25.77;;;18.43;;
14789;SDS011;7486;51.010;10.366;2024-03-02T06:10:14;26.23;;;18.60;;
14789;SDS011;7486;51.010;10.366;2024-03-02T06:13:00;29.07;;;19.67;;
14789;SDS011;7486;51.010;10.366;2024-03-02T06:15:46;26.80;;;19.13;;
14789;SDS011;7486;51.010;10.366;2024-03-02T06:18:31;29.77;;;21.27;;
14789;SDS011;7486;51.010;10.366;2024-03-02T06:21:17;28.40;;;21.10;;
14789;SDS011;7486;51.010;10.366;2024-03-02T06:24:03;29.73;;;20.23;;
14789;SDS011;7486;51.010;10.366;2024-03-02T06:26:49;25.50;;;19.40;;
14789;SDS011;7486;51.010;10.366;2024-03-02T06:29:34;27.33;;;20.80;;
14789;SDS011;7486;51.010;10.366;2024-03-02T06:32:20;27.47;;;19.83;;
14789;SDS011;7486;51.010;10.366;2024-03-02T06:35:06;27.67;;;20.20;;
14789;SDS011;7486;51.010;10.366;2024-03-02T06:37:52;28.70;;;20.30;;
14789;SDS011;7486;51.010;10.366;2024-03-02T06:40:37;29.00;;;20.67;;
14789;SDS011;7486;51.010;10.366;2024-03-02T06:43:22;27.43;;;20.67;;
14789;SDS011;7486;51.010;10.366;2024-03-02T06:46:08;30.03;;;20.57;;
14789;SDS011;7486;51.010;10.366;2024-03-02T06:48:53;28.43;;;21.63;;
14789;SDS011;7486;51.010;10.366;2024-03-02T06:51:39;28.50;;;21.33;;
14789;SDS011;7486;51.010;10.366;2024-03-02T06:54:25;30.90;;;21.87;;
14789;SDS011;7486;51.010;10.366;2024-03-02T06:57:10;40.00;;;30.10;;
14789;SDS011;7486;51.010;10.366;2024-03-02T06:59:56;31.53;;;22.97;;
14789;SDS011;7486;51.010;10.366;2024-03-02T07:02:41;31.00;;;21.63;;
14789;SDS011;7486;51.010;10.366;2024-03-02T07:05:27;27.93;;;20.57;;
14789;SDS011;7486;51.010;10.366;2024-03-02T07:08:13;28.70;;;19.67;;
14789;SDS011;7486;51.010;10.366;2024-03-02T07:10:58;25.60;;;19.43;;
14789;SDS011;7486;51.010;10.366;2024-03-02T07:13:44;25.03;;;19.03;;
14789;SDS011;7486;51.010;10.366;2024-03-02T07:16:30;23.97;;;18.07;;
14789;SDS011;7486;51.010;10.366;2024-03-02T07:19:16;22.73;;;17.80;;
14789;SDS011;7486;51.010;10.366;2024-03-02T07:22:02;22.70;;;17.90;;
14789;SDS011;7486;51.010;10.366;2024-03-02T07:24:51;22.70;;;16.53;;
14789;SDS011;7486;51.010;10.366;2024-03-02T07:27:38;21.73;;;15.83;;
14789;SDS011;7486;51.010;10.366;2024-03-02T07:30:24;20.23;;;16.27;;
14789;SDS011;7486;51.010;10.366;2024-03-02T07:33:10;20.33;;;16.03;;
14789;SDS011;7486;51.010;10.366;2024-03-02T07:35:55;22.03;;;15.97;;
14789;SDS011;7486;51.010;10.366;2024-03-02T07:38:41;21.00;;;16.10;;
14789;SDS011;7486;51.010;10.366;2024-03-02T07:41:28;22.13;;;16.40;;
14789;SDS011;7486;51.010;10.366;2024-03-02T07:44:13;21.17;;;15.97;;
14789;SDS011;7486;51.010;10.366;2024-03-02T07:46:59;20.57;;;15.97;;
14789;SDS011;7486;51.010;10.366;2024-03-02T07:49:45;20.70;;;15.53;;
14789;SDS011;7486;51.010;10.366;2024-03-02T07:52:30;18.27;;;15.07;;
14789;SDS011;7486;51.010;10.366;2024-03-02T07:55:16;19.48;;;14.65;;
14789;SDS011;7486;51.010;10.366;2024-03-02T07:58:01;18.20;;;14.43;;
14789;SDS011;7486;51.010;10.366;2024-03-02T08:00:47;18.10;;;14.47;;
14789;SDS011;7486;51.010;10.366;2024-03-02T08:03:35;17.90;;;14.07;;
14789;SDS011;7486;51.010;10.366;2024-03-02T08:06:21;17.13;;;13.80;;
14789;SDS011;7486;51.010;10.366;2024-03-02T08:09:06;18.57;;;14.37;;
14789;SDS011;7486;51.010;10.366;2024-03-02T08:11:51;17.70;;;13.70;;
14789;SDS011;7486;51.010;10.366;2024-03-02T08:14:37;15.63;;;13.03;;
14789;SDS011;7486;51.010;10.366;2024-03-02T08:17:22;17.27;;;13.60;;
14789;SDS011;7486;51.010;10.366;2024-03-02T08:20:08;16.30;;;13.13;;
14789;SDS011;7486;51.010;10.366;2024-03-02T08:22:54;15.35;;;12.50;;
14789;SDS011;7486;51.010;10.366;2024-03-02T08:25:39;15.40;;;12.90;;
14789;SDS011;7486;51.010;10.366;2024-03-02T08:28:25;14.45;;;11.93;;
14789;SDS011;7486;51.010;10.366;2024-03-02T08:31:10;14.73;;;12.00;;
14789;SDS011;7486;51.010;10.366;2024-03-02T08:33:56;13.85;;;11.40;;
14789;SDS011;7486;51.010;10.366;2024-03-02T08:36:43;13.00;;;10.85;;
14789;SDS011;7486;51.010;10.366;2024-03-02T08:39:29;14.10;;;10.32;;
14789;SDS011;7486;51.010;10.366;2024-03-02T08:42:15;13.13;;;10.60;;
14789;SDS011;7486;51.010;10.366;2024-03-02T08:45:01;12.50;;;10.57;;
14789;SDS011;7486;51.010;10.366;2024-03-02T08:47:48;13.88;;;10.93;;
14789;SDS011;7486;51.010;10.366;2024-03-02T08:50:35;12.88;;;10.88;;
14789;SDS011;7486;51.010;10.366;2024-03-02T08:53:21;13.20;;;11.02;;
14789;SDS011;7486;51.010;10.366;2024-03-02T08:56:06;12.90;;;10.77;;
14789;SDS011;7486;51.010;10.366;2024-03-02T08:58:52;13.70;;;11.20;;
14789;SDS011;7486;51.010;10.366;2024-03-02T09:01:39;14.48;;;11.00;;
14789;SDS011;7486;51.010;10.366;2024-03-02T09:04:24;14.13;;;11.32;;
14789;SDS011;7486;51.010;10.366;2024-03-02T09:07:12;12.50;;;10.23;;
14789;SDS011;7486;51.010;10.366;2024-03-02T09:09:58;12.55;;;10.40;;
14789;SDS011;7486;51.010;10.366;2024-03-02T09:12:43;11.57;;;9.70;;
14789;SDS011;7486;51.010;10.366;2024-03-02T09:15:29;12.10;;;10.38;;
14789;SDS011;7486;51.010;10.366;2024-03-02T09:18:18;11.60;;;9.95;;
14789;SDS011;7486;51.010;10.366;2024-03-02T09:21:05;13.30;;;10.60;;
14789;SDS011;7486;51.010;10.366;2024-03-02T09:23:50;11.73;;;10.20;;
14789;SDS011;7486;51.010;10.366;2024-03-02T09:26:36;14.65;;;10.38;;
14789;SDS011;7486;51.010;10.366;2024-03-02T09:29:21;12.35;;;9.80;;
14789;SDS011;7486;51.010;10.366;2024-03-02T09:32:07;12.98;;;10.55;;
14789;SDS011;7486;51.010;10.366;2024-03-02T09:34:54;12.52;;;11.00;;
14789;SDS011;7486;51.010;10.366;2024-03-02T09:37:39;13.13;;;10.23;;
14789;SDS011;7486;51.010;10.366;2024-03-02T09:40:25;14.27;;;10.35;;
14789;SDS011;7486;51.010;10.366;2024-03-02T09:43:11;12.80;;;10.18;;
14789;SDS011;7486;51.010;10.366;2024-03-02T09:45:56;11.55;;;9.82;;
14789;SDS011;7486;51.010;10.366;2024-03-02T09:48:45;11.57;;;9.57;;
14789;SDS011;7486;51.010;10.366;2024-03-02T09:51:31;10.55;;;9.30;;
14789;SDS011;7486;51.010;10.366;2024-03-02T09:54:16;11.07;;;8.95;;
14789;SDS011;7486;51.010;10.366;2024-03-02T09:57:07;10.40;;;8.88;;
14789;SDS011;7486;51.010;10.366;2024-03-02T09:59:52;11.70;;;9.13;;
14789;SDS011;7486;51.010;10.366;2024-03-02T10:02:38;9.90;;;8.60;;
14789;SDS011;7486;51.010;10.366;2024-03-02T10:05:23;10.25;;;8.90;;
14789;SDS011;7486;51.010;10.366;2024-03-02T10:08:10;10.90;;;8.55;;
14789;SDS011;7486;51.010;10.366;2024-03-02T10:10:55;9.57;;;8.45;;
14789;SDS011;7486;51.010;10.366;2024-03-02T10:13:42;10.73;;;8.70;;
14789;SDS011;7486;51.010;10.366;2024-03-02T10:16:27;9.25;;;7.93;;
14789;SDS011;7486;51.010;10.366;2024-03-02T10:19:20;9.63;;;8.10;;
14789;SDS011;7486;51.010;10.366;2024-03-02T10:22:08;9.25;;;8.07;;
14789;SDS011;7486;51.010;10.366;2024-03-02T10:24:55;8.73;;;7.68;;
14789;SDS011;7486;51.010;10.366;2024-03-02T10:27:45;9.02;;;7.70;;
14789;SDS011;7486;51.010;10.366;2024-03-02T10:30:36;8.45;;;7.55;;
14789;SDS011;7486;51.010;10.366;2024-03-02T10:33:22;9.05;;;7.43;;
14789;SDS011;7486;51.010;10.366;2024-03-02T10:36:10;7.88;;;6.43;;
14789;SDS011;7486;51.010;10.366;2024-03-02T10:38:56;7.60;;;6.43;;
14789;SDS011;7486;51.010;10.366;2024-03-02T10:41:42;8.52;;;6.65;;
14789;SDS011;7486;51.010;10.366;2024-03-02T10:44:31;6.78;;;5.78;;
14789;SDS011;7486;51.010;10.366;2024-03-02T10:47:17;6.72;;;5.88;;
14789;SDS011;7486;51.010;10.366;2024-03-02T10:50:07;7.53;;;6.55;;
14789;SDS011;7486;51.010;10.366;2024-03-02T10:52:55;7.50;;;6.22;;
14789;SDS011;7486;51.010;10.366;2024-03-02T10:55:41;8.05;;;7.25;;
14789;SDS011;7486;51.010;10.366;2024-03-02T10:58:30;9.07;;;7.50;;
14789;SDS011;7486;51.010;10.366;2024-03-02T11:01:18;8.30;;;7.40;;
14789;SDS011;7486;51.010;10.366;2024-03-02T11:04:07;9.52;;;8.38;;
14789;SDS011;7486;51.010;10.366;2024-03-02T11:10:00;9.00;;;8.07;;
14789;SDS011;7486;51.010;10.366;2024-03-02T11:12:57;8.65;;;7.03;;
14789;SDS011;7486;51.010;10.366;2024-03-02T11:15:47;8.75;;;7.72;;
14789;SDS011;7486;51.010;10.366;2024-03-02T11:18:35;9.38;;;8.32;;
14789;SDS011;7486;51.010;10.366;2024-03-02T11:21:22;8.60;;;7.53;;
14789;SDS011;7486;51.010;10.366;2024-03-02T11:27:07;8.35;;;7.25;;
14789;SDS011;7486;51.010;10.366;2024-03-02T11:29:53;7.07;;;6.25;;
14789;SDS011;7486;51.010;10.366;2024-03-02T11:32:38;7.75;;;6.60;;
14789;SDS011;7486;51.010;10.366;2024-03-02T11:35:25;7.05;;;6.10;;
14789;SDS011;7486;51.010;10.366;2024-03-02T11:38:11;6.40;;;5.70;;
14789;SDS011;7486;51.010;10.366;2024-03-02T11:40:56;6.15;;;5.55;;
14789;SDS011;7486;51.010;10.366;2024-03-02T11:43:42;7.70;;;6.30;;
14789;SDS011;7486;51.010;10.366;2024-03-02T11:46:27;6.80;;;6.10;;
14789;SDS011;7486;51.010;10.366;2024-03-02T11:49:14;7.25;;;6.47;;
14789;SDS011;7486;51.010;10.366;2024-03-02T11:52:01;7.10;;;6.40;;
14789;SDS011;7486;51.010;10.366;2024-03-02T11:54:47;7.60;;;6.30;;
14789;SDS011;7486;51.010;10.366;2024-03-02T11:57:35;6.80;;;6.10;;
14789;SDS011;7486;51.010;10.366;2024-03-02T12:00:20;6.60;;;5.72;;
14789;SDS011;7486;51.010;10.366;2024-03-02T12:03:07;60.17;;;15.55;;
14789;SDS011;7486;51.010;10.366;2024-03-02T12:05:54;59.38;;;14.30;;
14789;SDS011;7486;51.010;10.366;2024-03-02T12:08:40;17.05;;;7.32;;
14789;SDS011;7486;51.010;10.366;2024-03-02T12:11:26;6.43;;;5.75;;
14789;SDS011;7486;51.010;10.366;2024-03-02T12:14:12;9.52;;;6.13;;
14789;SDS011;7486;51.010;10.366;2024-03-02T12:16:57;7.05;;;5.68;;
14789;SDS011;7486;51.010;10.366;2024-03-02T12:19:44;5.85;;;5.25;;
14789;SDS011;7486;51.010;10.366;2024-03-02T12:22:30;6.03;;;5.13;;
14789;SDS011;7486;51.010;10.366;2024-03-02T12:25:16;6.57;;;5.07;;
14789;SDS011;7486;51.010;10.366;2024-03-02T12:28:01;6.00;;;5.18;;
14789;SDS011;7486;51.010;10.366;2024-03-02T12:30:48;5.82;;;5.30;;
14789;SDS011;7486;51.010;10.366;2024-03-02T12:33:53;5.70;;;5.13;;
14789;SDS011;7486;51.010;10.366;2024-03-02T12:36:40;7.82;;;4.68;;
14789;SDS011;7486;51.010;10.366;2024-03-02T12:39:26;4.95;;;4.45;;
14789;SDS011;7486;51.010;10.366;2024-03-02T12:42:11;7.38;;;5.10;;
14789;SDS011;7486;51.010;10.366;2024-03-02T12:44:57;5.88;;;5.07;;
14789;SDS011;7486;51.010;10.366;2024-03-02T12:47:42;5.85;;;4.95;;
14789;SDS011;7486;51.010;10.366;2024-03-02T12:50:30;6.07;;;5.20;;
14789;SDS011;7486;51.010;10.366;2024-03-02T12:53:16;4.95;;;4.40;;
14789;SDS011;7486;51.010;10.366;2024-03-02T12:56:05;5.63;;;5.03;;
14789;SDS011;7486;51.010;10.366;2024-03-02T12:58:55;5.40;;;4.28;;
14789;SDS011;7486;51.010;10.366;2024-03-02T13:01:49;5.43;;;4.60;;
14789;SDS011;7486;51.010;10.366;2024-03-02T13:04:36;5.20;;;4.70;;
14789;SDS011;7486;51.010;10.366;2024-03-02T13:07:25;5.53;;;4.63;;
14789;SDS011;7486;51.010;10.366;2024-03-02T13:10:10;5.95;;;4.40;;
14789;SDS011;7486;51.010;10.366;2024-03-02T13:12:58;4.68;;;4.20;;
14789;SDS011;7486;51.010;10.366;2024-03-02T13:15:44;5.38;;;4.22;;
14789;SDS011;7486;51.010;10.366;2024-03-02T13:18:31;4.70;;;4.00;;
14789;SDS011;7486;51.010;10.366;2024-03-02T13:21:18;5.40;;;4.30;;
14789;SDS011;7486;51.010;10.366;2024-03-02T13:24:07;5.70;;;4.45;;
14789;SDS011;7486;51.010;10.366;2024-03-02T13:26:54;5.05;;;4.50;;
14789;SDS011;7486;51.010;10.366;2024-03-02T13:29:50;4.30;;;3.70;;
14789;SDS011;7486;51.010;10.366;2024-03-02T13:32:36;4.47;;;4.07;;
14789;SDS011;7486;51.010;10.366;2024-03-02T13:35:24;5.35;;;3.90;;
14789;SDS011;7486;51.010;10.366;2024-03-02T13:38:09;4.50;;;3.95;;
14789;SDS011;7486;51.010;10.366;2024-03-02T13:40:56;4.03;;;3.63;;
14789;SDS011;7486;51.010;10.366;2024-03-02T13:43:41;4.25;;;3.45;;
14789;SDS011;7486;51.010;10.366;2024-03-02T13:46:37;5.15;;;3.80;;
14789;SDS011;7486;51.010;10.366;2024-03-02T13:49:24;3.75;;;3.33;;
14789;SDS011;7486;51.010;10.366;2024-03-02T13:52:10;4.07;;;3.42;;
14789;SDS011;7486;51.010;10.366;2024-03-02T13:54:56;5.97;;;3.95;;
14789;SDS011;7486;51.010;10.366;2024-03-02T13:57:42;4.75;;;3.75;;
14789;SDS011;7486;51.010;10.366;2024-03-02T14:00:28;3.97;;;3.58;;
14789;SDS011;7486;51.010;10.366;2024-03-02T14:03:15;4.85;;;3.75;;
14789;SDS011;7486;51.010;10.366;2024-03-02T14:06:00;3.75;;;3.42;;
14789;SDS011;7486;51.010;10.366;2024-03-02T14:08:46;4.28;;;3.33;;
14789;SDS011;7486;51.010;10.366;2024-03-02T14:11:31;4.55;;;3.65;;
14789;SDS011;7486;51.010;10.366;2024-03-02T14:14:17;4.03;;;3.10;;
14789;SDS011;7486;51.010;10.366;2024-03-02T14:17:03;5.00;;;3.10;;
14789;SDS011;7486;51.010;10.366;2024-03-02T14:19:50;3.42;;;3.05;;
14789;SDS011;7486;51.010;10.366;2024-03-02T14:22:35;3.40;;;3.08;;
14789;SDS011;7486;51.010;10.366;2024-03-02T14:25:22;4.82;;;3.00;;
14789;SDS011;7486;51.010;10.366;2024-03-02T14:28:07;3.05;;;2.67;;
14789;SDS011;7486;51.010;10.366;2024-03-02T14:31:14;3.92;;;3.08;;
14789;SDS011;7486;51.010;10.366;2024-03-02T14:34:03;3.30;;;3.00;;
14789;SDS011;7486;51.010;10.366;2024-03-02T14:36:50;3.17;;;2.70;;
14789;SDS011;7486;51.010;10.366;2024-03-02T14:39:37;3.10;;;2.80;;
14789;SDS011;7486;51.010;10.366;2024-03-02T14:42:23;4.43;;;3.15;;
14789;SDS011;7486;51.010;10.366;2024-03-02T14:45:09;4.32;;;2.80;;
14789;SDS011;7486;51.010;10.366;2024-03-02T14:47:56;3.00;;;2.70;;
14789;SDS011;7486;51.010;10.366;2024-03-02T14:51:02;3.63;;;3.22;;
14789;SDS011;7486;51.010;10.366;2024-03-02T14:53:49;2.70;;;2.50;;
14789;SDS011;7486;51.010;10.366;2024-03-02T14:56:37;3.42;;;2.63;;
14789;SDS011;7486;51.010;10.366;2024-03-02T14:59:27;2.38;;;2.10;;
14789;SDS011;7486;51.010;10.366;2024-03-02T15:02:14;2.45;;;1.90;;
14789;SDS011;7486;51.010;10.366;2024-03-02T15:05:03;1.88;;;1.77;;
14789;SDS011;7486;51.010;10.366;2024-03-02T15:07:51;2.50;;;2.30;;
14789;SDS011;7486;51.010;10.366;2024-03-02T15:10:40;2.40;;;2.10;;
14789;SDS011;7486;51.010;10.366;2024-03-02T15:13:32;1.90;;;1.80;;
14789;SDS011;7486;51.010;10.366;2024-03-02T15:16:55;2.45;;;2.20;;
14789;SDS011;7486;51.010;10.366;2024-03-02T15:19:43;2.28;;;1.80;;
14789;SDS011;7486;51.010;10.366;2024-03-02T15:22:56;2.30;;;2.10;;
14789;SDS011;7486;51.010;10.366;2024-03-02T15:26:17;2.75;;;2.10;;
14789;SDS011;7486;51.010;10.366;2024-03-02T15:29:09;2.58;;;1.80;;
14789;SDS011;7486;51.010;10.366;2024-03-02T15:32:13;2.10;;;1.80;;
14789;SDS011;7486;51.010;10.366;2024-03-02T15:35:01;1.63;;;1.52;;
14789;SDS011;7486;51.010;10.366;2024-03-02T15:37:49;1.83;;;1.50;;
14789;SDS011;7486;51.010;10.366;2024-03-02T15:41:11;2.22;;;1.60;;
14789;SDS011;7486;51.010;10.366;2024-03-02T15:44:01;1.90;;;1.73;;
14789;SDS011;7486;51.010;10.366;2024-03-02T15:47:07;2.13;;;1.83;;
14789;SDS011;7486;51.010;10.366;2024-03-02T15:50:29;2.25;;;1.70;;
14789;SDS011;7486;51.010;10.366;2024-03-02T15:53:15;2.42;;;1.70;;
14789;SDS011;7486;51.010;10.366;2024-03-02T15:56:01;1.70;;;1.60;;
14789;SDS011;7486;51.010;10.366;2024-03-02T15:58:50;1.40;;;1.30;;
14789;SDS011;7486;51.010;10.366;2024-03-02T16:01:36;2.22;;;1.65;;
14789;SDS011;7486;51.010;10.366;2024-03-02T16:04:22;1.60;;;1.50;;
14789;SDS011;7486;51.010;10.366;2024-03-02T16:07:07;1.60;;;1.50;;
14789;SDS011;7486;51.010;10.366;2024-03-02T16:09:54;1.65;;;1.23;;
14789;SDS011;7486;51.010;10.366;2024-03-02T16:12:39;1.35;;;1.20;;
14789;SDS011;7486;51.010;10.366;2024-03-02T16:15:26;1.20;;;1.10;;
14789;SDS011;7486;51.010;10.366;2024-03-02T16:18:12;2.40;;;2.20;;
14789;SDS011;7486;51.010;10.366;2024-03-02T16:20:58;3.50;;;3.20;;
14789;SDS011;7486;51.010;10.366;2024-03-02T16:23:44;3.88;;;3.28;;
14789;SDS011;7486;51.010;10.366;2024-03-02T16:26:29;3.28;;;2.97;;
14789;SDS011;7486;51.010;10.366;2024-03-02T16:29:33;4.85;;;4.10;;
14789;SDS011;7486;51.010;10.366;2024-03-02T16:32:20;5.07;;;4.35;;
14789;SDS011;7486;51.010;10.366;2024-03-02T16:35:05;4.28;;;3.88;;
14789;SDS011;7486;51.010;10.366;2024-03-02T16:37:51;4.85;;;4.35;;